createdAt,value
2022-11-26T00:00:31.419Z,3.49
2022-11-26T00:01:31.407Z,3.44
2022-11-26T00:02:31.567Z,3.44
2022-11-26T00:03:31.515Z,3.44
2022-11-26T00:04:31.356Z,3.54
2022-11-26T00:05:31.372Z,3.57
2022-11-26T00:06:31.331Z,3.46
2022-11-26T00:07:31.388Z,3.50
2022-11-26T00:08:31.315Z,3.56
2022-11-26T00:09:31.290Z,3.53
2022-11-26T00:10:31.274Z,3.56
2022-11-26T00:11:31.267Z,3.62
2022-11-26T00:12:31.247Z,3.62
2022-11-26T00:13:31.240Z,3.70
2022-11-26T00:14:31.224Z,3.72
2022-11-26T00:15:31.212Z,3.70
2022-11-26T00:16:31.249Z,3.64
2022-11-26T00:17:31.186Z,3.71
2022-11-26T00:18:31.166Z,3.78
2022-11-26T00:19:31.153Z,3.74
2022-11-26T00:20:31.140Z,3.84
2022-11-26T00:21:31.171Z,3.81
2022-11-26T00:22:31.117Z,3.88
2022-11-26T00:23:31.107Z,3.90
2022-11-26T00:24:31.096Z,3.92
2022-11-26T00:25:31.079Z,3.88
2022-11-26T00:26:31.072Z,4.04
2022-11-26T00:27:31.053Z,4.02
2022-11-26T00:28:31.035Z,4.07
2022-11-26T00:29:31.022Z,4.00
2022-11-26T00:30:31.015Z,4.02
2022-11-26T00:31:31.029Z,4.06
2022-11-26T00:32:30.979Z,4.04
2022-11-26T00:33:30.964Z,4.14
2022-11-26T00:34:30.958Z,4.08
2022-11-26T00:35:30.939Z,4.06
2022-11-26T00:36:30.925Z,4.11
2022-11-26T00:37:30.936Z,4.17
2022-11-26T00:38:30.906Z,4.14
2022-11-26T00:39:30.888Z,4.17
2022-11-26T00:40:30.875Z,4.18
2022-11-26T00:41:30.863Z,4.10
2022-11-26T00:42:30.850Z,4.04
2022-11-26T00:43:30.835Z,4.16
2022-11-26T00:44:30.828Z,4.11
2022-11-26T00:45:30.894Z,4.17
2022-11-26T00:46:30.788Z,4.11
2022-11-26T00:47:30.775Z,4.16
2022-11-26T00:48:30.763Z,4.17
2022-11-26T00:49:30.752Z,4.06
2022-11-26T00:50:30.736Z,4.08
2022-11-26T00:51:30.727Z,4.17
2022-11-26T00:52:30.706Z,4.18
2022-11-26T00:53:30.719Z,4.10
2022-11-26T00:54:30.682Z,4.07
2022-11-26T00:55:30.676Z,3.99
2022-11-26T00:56:33.844Z,4.00
2022-11-26T00:57:31.663Z,3.96
2022-11-26T00:58:30.630Z,3.93
2022-11-26T00:59:30.615Z,4.08
2022-11-26T01:00:30.595Z,3.95
2022-11-26T01:01:30.696Z,3.95
2022-11-26T01:02:30.754Z,3.98
2022-11-26T01:03:30.559Z,3.92
2022-11-26T01:04:30.541Z,3.92
2022-11-26T01:05:30.536Z,3.95
2022-11-26T01:06:30.520Z,3.98
2022-11-26T01:07:30.588Z,3.99
2022-11-26T01:08:30.498Z,3.88
2022-11-26T01:09:30.499Z,4.02
2022-11-26T01:10:30.466Z,3.90
2022-11-26T01:11:30.448Z,3.95
2022-11-26T01:12:30.436Z,3.92
2022-11-26T01:13:30.427Z,3.90
2022-11-26T01:14:30.411Z,3.95
2022-11-26T01:15:30.403Z,3.84
2022-11-26T01:16:30.472Z,3.96
2022-11-26T01:17:30.374Z,3.96
2022-11-26T01:18:30.367Z,3.88
2022-11-26T01:19:30.352Z,3.99
2022-11-26T01:20:30.335Z,3.96
2022-11-26T01:21:30.309Z,3.96
2022-11-26T01:22:30.302Z,4.00
2022-11-26T01:23:30.288Z,3.89
2022-11-26T01:24:30.280Z,3.95
2022-11-26T01:25:30.283Z,3.89
2022-11-26T01:26:30.245Z,3.93
2022-11-26T01:27:30.234Z,3.96
2022-11-26T01:28:30.216Z,4.04
2022-11-26T01:29:30.205Z,3.95
2022-11-26T01:30:30.199Z,4.04
2022-11-26T01:31:30.320Z,3.88
2022-11-26T01:32:30.173Z,4.00
2022-11-26T01:33:30.155Z,4.04
2022-11-26T01:34:30.155Z,3.95
2022-11-26T01:35:30.131Z,4.10
2022-11-26T01:36:30.118Z,4.07
2022-11-26T01:37:30.097Z,4.02
2022-11-26T01:38:30.080Z,4.04
2022-11-26T01:39:30.067Z,4.00
2022-11-26T01:40:30.056Z,3.98
2022-11-26T01:41:30.064Z,4.00
2022-11-26T01:42:30.030Z,4.04
2022-11-26T01:43:30.020Z,4.10
2022-11-26T01:44:30.014Z,4.13
2022-11-26T01:45:30.061Z,4.08
2022-11-26T01:46:29.978Z,4.11
2022-11-26T01:47:29.961Z,4.00
2022-11-26T01:48:29.948Z,3.99
2022-11-26T01:49:29.931Z,4.06
2022-11-26T01:50:29.917Z,4.16
2022-11-26T01:51:29.910Z,4.06
2022-11-26T01:52:29.895Z,4.13
2022-11-26T01:53:29.881Z,4.08
2022-11-26T01:54:29.867Z,4.02
2022-11-26T01:55:29.856Z,3.99
2022-11-26T01:56:29.845Z,4.00
2022-11-26T01:57:29.855Z,4.16
2022-11-26T01:58:29.817Z,4.08
2022-11-26T01:59:29.811Z,4.07
2022-11-26T02:00:29.789Z,3.99
2022-11-26T02:01:29.891Z,3.96
2022-11-26T02:02:29.873Z,4.08
2022-11-26T02:03:29.753Z,4.04
2022-11-26T02:04:29.742Z,4.02
2022-11-26T02:05:29.717Z,3.99
2022-11-26T02:06:29.709Z,4.08
2022-11-26T02:07:29.725Z,4.00
2022-11-26T02:08:29.684Z,4.06
2022-11-26T02:09:29.664Z,3.95
2022-11-26T02:10:29.655Z,4.04
2022-11-26T02:11:29.640Z,3.92
2022-11-26T02:12:29.627Z,3.93
2022-11-26T02:13:29.655Z,3.99
2022-11-26T02:14:29.604Z,3.92
2022-11-26T02:15:29.590Z,3.95
2022-11-26T02:16:29.665Z,3.93
2022-11-26T02:17:29.565Z,3.86
2022-11-26T02:18:29.557Z,3.95
2022-11-26T02:19:29.537Z,3.88
2022-11-26T02:20:29.523Z,3.89
2022-11-26T02:21:29.510Z,3.88
2022-11-26T02:22:29.493Z,3.96
2022-11-26T02:23:29.482Z,3.86
2022-11-26T02:24:29.472Z,3.88
2022-11-26T02:25:29.450Z,3.92
2022-11-26T02:26:29.442Z,3.88
2022-11-26T02:27:29.431Z,3.90
2022-11-26T02:28:29.415Z,3.86
2022-11-26T02:29:29.424Z,3.88
2022-11-26T02:30:29.389Z,3.93
2022-11-26T02:31:29.435Z,3.95
2022-11-26T02:32:29.361Z,3.86
2022-11-26T02:33:29.346Z,3.98
2022-11-26T02:34:34.273Z,3.93
2022-11-26T02:35:30.335Z,3.95
2022-11-26T02:36:29.307Z,4.06
2022-11-26T02:37:29.292Z,4.02
2022-11-26T02:38:29.277Z,3.99
2022-11-26T02:39:29.258Z,4.00
2022-11-26T02:40:29.250Z,4.11
2022-11-26T02:41:29.238Z,4.08
2022-11-26T02:42:29.229Z,4.10
2022-11-26T02:43:29.210Z,4.10
2022-11-26T02:44:29.202Z,4.18
2022-11-26T02:45:29.287Z,4.29
2022-11-26T02:46:29.172Z,4.34
2022-11-26T02:47:29.157Z,4.29
2022-11-26T02:48:29.148Z,4.38
2022-11-26T02:49:29.129Z,4.29
2022-11-26T02:50:29.132Z,4.26
2022-11-26T02:51:34.585Z,4.25
2022-11-26T02:52:29.111Z,4.25
2022-11-26T02:53:29.081Z,4.25
2022-11-26T02:54:29.069Z,4.26
2022-11-26T02:55:29.047Z,4.26
2022-11-26T02:56:29.038Z,4.28
2022-11-26T02:57:29.021Z,4.26
2022-11-26T02:58:29.013Z,4.21
2022-11-26T02:59:28.994Z,4.21
2022-11-26T03:00:28.990Z,4.26
2022-11-26T03:01:29.180Z,4.24
2022-11-26T03:02:28.968Z,4.25
2022-11-26T03:03:29.000Z,4.34
2022-11-26T03:04:29.012Z,4.32
2022-11-26T03:05:28.919Z,4.26
2022-11-26T03:06:28.901Z,4.29
2022-11-26T03:07:28.955Z,4.31
2022-11-26T03:08:28.872Z,4.39
2022-11-26T03:09:28.856Z,4.42
2022-11-26T03:10:28.841Z,4.29
2022-11-26T03:11:28.851Z,4.46
2022-11-26T03:12:28.815Z,4.43
2022-11-26T03:13:28.799Z,4.34
2022-11-26T03:14:28.789Z,4.32
2022-11-26T03:15:28.775Z,4.28
2022-11-26T03:16:28.791Z,4.39
2022-11-26T03:17:28.779Z,4.38
2022-11-26T03:18:28.746Z,4.39
2022-11-26T03:19:28.728Z,4.44
2022-11-26T03:20:28.720Z,4.36
2022-11-26T03:21:28.698Z,4.44
2022-11-26T03:22:28.689Z,4.49
2022-11-26T03:23:28.673Z,4.51
2022-11-26T03:24:28.655Z,4.53
2022-11-26T03:25:28.641Z,4.42
2022-11-26T03:26:28.632Z,4.47
2022-11-26T03:27:28.614Z,4.53
2022-11-26T03:28:28.606Z,4.62
2022-11-26T03:29:28.590Z,4.47
2022-11-26T03:30:28.586Z,4.54
2022-11-26T03:31:28.621Z,4.57
2022-11-26T03:32:28.552Z,4.67
2022-11-26T03:33:28.564Z,4.49
2022-11-26T03:34:28.535Z,4.54
2022-11-26T03:35:28.512Z,4.47
2022-11-26T03:36:28.505Z,4.47
2022-11-26T03:37:28.484Z,4.54
2022-11-26T03:38:28.476Z,4.50
2022-11-26T03:39:28.460Z,4.44
2022-11-26T03:40:28.447Z,4.47
2022-11-26T03:41:28.685Z,4.39
2022-11-26T03:42:28.423Z,4.34
2022-11-26T03:43:28.407Z,4.44
2022-11-26T03:44:28.394Z,4.36
2022-11-26T03:45:28.422Z,4.51
2022-11-26T03:46:28.365Z,4.34
2022-11-26T03:47:28.353Z,4.39
2022-11-26T03:48:28.348Z,4.51
2022-11-26T03:49:28.342Z,4.35
2022-11-26T03:50:28.309Z,4.43
2022-11-26T03:51:28.297Z,4.34
2022-11-26T03:52:28.283Z,4.34
2022-11-26T03:53:28.281Z,4.38
2022-11-26T03:54:28.276Z,4.38
2022-11-26T03:55:28.253Z,4.29
2022-11-26T03:56:28.232Z,4.38
2022-11-26T03:57:28.228Z,4.32
2022-11-26T03:58:28.207Z,4.31
2022-11-26T03:59:28.195Z,4.26
2022-11-26T04:00:28.181Z,4.28
2022-11-26T04:01:28.230Z,4.25
2022-11-26T04:02:28.156Z,4.25
2022-11-26T04:03:28.200Z,4.21
2022-11-26T04:04:28.130Z,4.14
2022-11-26T04:05:28.141Z,4.20
2022-11-26T04:06:28.106Z,4.20
2022-11-26T04:07:28.141Z,4.06
2022-11-26T04:08:28.075Z,4.21
2022-11-26T04:09:28.064Z,4.14
2022-11-26T04:10:28.047Z,4.08
2022-11-26T04:11:28.036Z,4.08
2022-11-26T04:12:28.027Z,4.10
2022-11-26T04:13:28.006Z,4.06
2022-11-26T04:14:27.993Z,4.02
2022-11-26T04:15:27.980Z,4.07
2022-11-26T04:16:28.061Z,4.10
2022-11-26T04:17:27.952Z,4.04
2022-11-26T04:18:27.940Z,3.95
2022-11-26T04:19:27.924Z,3.88
2022-11-26T04:20:27.911Z,3.95
2022-11-26T04:21:27.942Z,3.88
2022-11-26T04:22:27.892Z,3.88
2022-11-26T04:23:27.875Z,3.93
2022-11-26T04:24:27.872Z,3.84
2022-11-26T04:25:27.847Z,3.78
2022-11-26T04:26:27.834Z,3.78
2022-11-26T04:27:27.821Z,3.74
2022-11-26T04:28:27.809Z,3.70
2022-11-26T04:29:27.791Z,3.74
2022-11-26T04:30:29.909Z,3.75
2022-11-26T04:31:27.800Z,3.63
2022-11-26T04:32:27.757Z,3.67
2022-11-26T04:33:27.732Z,3.60
2022-11-26T04:34:27.722Z,3.59
2022-11-26T04:35:27.706Z,3.59
2022-11-26T04:36:27.701Z,3.44
2022-11-26T04:37:27.708Z,3.53
2022-11-26T04:38:27.676Z,3.52
2022-11-26T04:39:27.761Z,3.35
2022-11-26T04:40:27.641Z,3.41
2022-11-26T04:41:27.626Z,3.49
2022-11-26T04:42:27.613Z,3.42
2022-11-26T04:43:27.609Z,3.30
2022-11-26T04:44:27.594Z,3.22
2022-11-26T04:45:27.633Z,3.28
2022-11-26T04:46:27.763Z,3.25
2022-11-26T04:47:27.544Z,3.15
2022-11-26T04:48:27.536Z,3.13
2022-11-26T04:49:27.523Z,3.17
2022-11-26T04:50:27.512Z,3.20
2022-11-26T04:51:27.493Z,3.19
2022-11-26T04:52:27.487Z,2.98
2022-11-26T04:53:27.494Z,2.99
2022-11-26T04:54:27.471Z,3.13
2022-11-26T04:55:27.445Z,2.94
2022-11-26T04:56:27.423Z,2.89
2022-11-26T04:57:27.411Z,2.86
2022-11-26T04:58:27.399Z,2.89
2022-11-26T04:59:27.383Z,2.94
2022-11-26T05:00:27.376Z,2.89
2022-11-26T05:01:27.494Z,2.77
2022-11-26T05:02:27.386Z,2.77
2022-11-26T05:03:27.330Z,2.74
2022-11-26T05:04:27.322Z,2.83
2022-11-26T05:05:27.310Z,2.77
2022-11-26T05:06:27.297Z,2.80
2022-11-26T05:07:27.333Z,2.79
2022-11-26T05:08:27.267Z,2.71
2022-11-26T05:09:27.270Z,2.77
2022-11-26T05:10:27.237Z,2.74
2022-11-26T05:11:27.223Z,2.74
2022-11-26T05:12:27.213Z,2.77
2022-11-26T05:13:27.194Z,2.73
2022-11-26T05:14:27.183Z,2.65
2022-11-26T05:15:27.171Z,2.71
2022-11-26T05:16:27.222Z,2.76
2022-11-26T05:17:27.144Z,2.66
2022-11-26T05:18:27.130Z,2.66
2022-11-26T05:19:27.123Z,2.58
2022-11-26T05:20:27.107Z,2.58
2022-11-26T05:21:27.089Z,2.55
2022-11-26T05:22:27.080Z,2.58
2022-11-26T05:23:27.071Z,2.59
2022-11-26T05:24:27.051Z,2.51
2022-11-26T05:25:27.054Z,2.45
2022-11-26T05:26:27.029Z,2.53
2022-11-26T05:27:27.015Z,2.25
2022-11-26T05:28:26.995Z,2.32
2022-11-26T05:29:26.984Z,2.27
2022-11-26T05:30:26.974Z,2.36
2022-11-26T05:31:27.016Z,2.27
2022-11-26T05:32:26.946Z,2.32
2022-11-26T05:33:26.928Z,2.27
2022-11-26T05:34:26.915Z,2.26
2022-11-26T05:35:26.900Z,2.18
2022-11-26T05:36:26.896Z,2.20
2022-11-26T05:37:26.877Z,2.23
2022-11-26T05:38:26.860Z,2.18
2022-11-26T05:39:26.846Z,2.14
2022-11-26T05:40:26.835Z,2.15
2022-11-26T05:41:26.841Z,2.18
2022-11-26T05:42:26.804Z,2.05
2022-11-26T05:43:26.797Z,1.98
2022-11-26T05:44:26.779Z,2.07
2022-11-26T05:45:26.780Z,2.02
2022-11-26T05:46:26.751Z,2.12
2022-11-26T05:47:27.206Z,2.07
2022-11-26T05:48:26.721Z,2.05
2022-11-26T05:49:26.717Z,1.95
2022-11-26T05:50:26.699Z,2.02
2022-11-26T05:51:26.690Z,2.01
2022-11-26T05:52:26.676Z,2.00
2022-11-26T05:53:26.665Z,1.92
2022-11-26T05:54:26.645Z,1.90
2022-11-26T05:55:26.634Z,1.86
2022-11-26T05:56:26.616Z,1.79
2022-11-26T05:57:26.621Z,1.77
2022-11-26T05:58:26.587Z,1.79
2022-11-26T05:59:26.575Z,1.74
2022-11-26T06:00:26.567Z,1.82
2022-11-26T06:01:26.551Z,1.72
2022-11-26T06:02:26.629Z,1.71
2022-11-26T06:03:26.659Z,1.60
2022-11-26T06:04:26.504Z,1.64
2022-11-26T06:05:26.497Z,1.63
2022-11-26T06:06:26.486Z,1.70
2022-11-26T06:07:26.570Z,1.64
2022-11-26T06:08:26.455Z,1.75
2022-11-26T06:09:26.447Z,1.64
2022-11-26T06:10:26.427Z,1.65
2022-11-26T06:11:26.418Z,1.57
2022-11-26T06:12:26.397Z,1.54
2022-11-26T06:13:26.409Z,1.60
2022-11-26T06:14:26.372Z,1.63
2022-11-26T06:15:26.356Z,1.67
2022-11-26T06:16:26.416Z,1.63
2022-11-26T06:17:26.328Z,1.60
2022-11-26T06:18:26.315Z,1.60
2022-11-26T06:19:26.303Z,1.63
2022-11-26T06:20:26.283Z,1.64
2022-11-26T06:21:26.328Z,1.61
2022-11-26T06:22:26.260Z,1.63
2022-11-26T06:23:26.253Z,1.70
2022-11-26T06:24:26.231Z,1.56
2022-11-26T06:25:26.215Z,1.64
2022-11-26T06:26:26.202Z,1.56
2022-11-26T06:27:26.192Z,1.68
2022-11-26T06:28:26.178Z,1.57
2022-11-26T06:29:28.185Z,1.79
2022-11-26T06:30:26.151Z,1.67
2022-11-26T06:31:26.230Z,1.60
2022-11-26T06:32:26.122Z,1.57
2022-11-26T06:33:26.110Z,1.64
2022-11-26T06:34:26.093Z,1.60
2022-11-26T06:35:26.077Z,1.74
2022-11-26T06:36:26.068Z,1.60
2022-11-26T06:37:26.050Z,1.65
2022-11-26T06:38:26.040Z,1.67
2022-11-26T06:39:26.023Z,1.65
2022-11-26T06:40:26.016Z,1.74
2022-11-26T06:41:26.000Z,1.71
2022-11-26T06:42:25.988Z,1.71
2022-11-26T06:43:25.970Z,1.68
2022-11-26T06:44:25.961Z,1.77
2022-11-26T06:45:26.071Z,1.71
2022-11-26T06:46:25.934Z,1.86
2022-11-26T06:47:25.918Z,1.77
2022-11-26T06:48:25.906Z,1.81
2022-11-26T06:49:25.892Z,1.72
2022-11-26T06:50:25.876Z,1.83
2022-11-26T06:51:25.859Z,1.72
2022-11-26T06:52:25.845Z,1.86
2022-11-26T06:53:25.837Z,1.81
2022-11-26T06:54:25.818Z,1.83
2022-11-26T06:55:25.801Z,1.71
2022-11-26T06:56:25.797Z,1.83
2022-11-26T06:57:25.778Z,1.72
2022-11-26T06:58:25.761Z,1.63
2022-11-26T06:59:25.752Z,1.67
2022-11-26T07:00:25.732Z,1.68
2022-11-26T07:01:25.849Z,1.67
2022-11-26T07:02:25.846Z,1.68
2022-11-26T07:03:28.127Z,1.68
2022-11-26T07:04:26.709Z,1.60
2022-11-26T07:05:25.669Z,1.63
2022-11-26T07:06:25.655Z,1.77
2022-11-26T07:07:25.727Z,1.70
2022-11-26T07:08:25.631Z,1.71
2022-11-26T07:09:25.613Z,1.63
2022-11-26T07:10:25.598Z,1.71
2022-11-26T07:11:25.602Z,1.72
2022-11-26T07:12:25.570Z,1.71
2022-11-26T07:13:25.561Z,1.83
2022-11-26T07:14:25.540Z,1.77
2022-11-26T07:15:25.527Z,1.89
2022-11-26T07:16:25.624Z,1.95
2022-11-26T07:17:25.524Z,1.95
2022-11-26T07:18:25.484Z,1.92
2022-11-26T07:19:25.480Z,1.93
2022-11-26T07:20:25.457Z,2.02
2022-11-26T07:21:25.448Z,2.04
2022-11-26T07:22:25.436Z,2.08
2022-11-26T07:23:25.419Z,2.04
2022-11-26T07:24:25.406Z,2.07
2022-11-26T07:25:25.388Z,2.00
2022-11-26T07:26:25.378Z,2.02
2022-11-26T07:27:25.361Z,2.04
2022-11-26T07:28:25.357Z,2.04
2022-11-26T07:29:25.343Z,2.00
2022-11-26T07:30:25.329Z,2.00
2022-11-26T07:31:25.349Z,2.11
2022-11-26T07:32:25.297Z,2.04
2022-11-26T07:33:25.304Z,2.08
2022-11-26T07:34:25.264Z,2.00
2022-11-26T07:35:25.255Z,2.11
2022-11-26T07:36:25.235Z,2.11
2022-11-26T07:37:25.222Z,2.11
2022-11-26T07:38:25.208Z,2.07
2022-11-26T07:39:25.208Z,2.19
2022-11-26T07:40:25.187Z,2.15
2022-11-26T07:41:25.172Z,2.15
2022-11-26T07:42:25.159Z,2.15
2022-11-26T07:43:25.145Z,2.23
2022-11-26T07:44:25.154Z,2.15
2022-11-26T07:45:25.119Z,2.26
2022-11-26T07:46:25.235Z,2.22
2022-11-26T07:47:25.096Z,2.36
2022-11-26T07:48:25.073Z,2.37
2022-11-26T07:49:25.094Z,2.37
2022-11-26T07:50:25.054Z,2.33
2022-11-26T07:51:25.045Z,2.40
2022-11-26T07:52:25.027Z,2.40
2022-11-26T07:53:25.012Z,2.37
2022-11-26T07:54:24.998Z,2.44
2022-11-26T07:55:24.985Z,2.50
2022-11-26T07:56:24.978Z,2.51
2022-11-26T07:57:24.964Z,2.43
2022-11-26T07:58:24.940Z,2.59
2022-11-26T07:59:24.928Z,2.62
2022-11-26T08:00:24.914Z,2.65
2022-11-26T08:01:24.987Z,2.65
2022-11-26T08:02:24.932Z,2.65
2022-11-26T08:03:24.872Z,2.63
2022-11-26T08:04:24.864Z,2.59
2022-11-26T08:05:24.876Z,2.66
2022-11-26T08:06:24.837Z,2.71
2022-11-26T08:07:29.203Z,2.71
2022-11-26T08:08:24.810Z,2.71
2022-11-26T08:09:24.801Z,2.73
2022-11-26T08:10:24.898Z,2.65
2022-11-26T08:11:24.775Z,2.76
2022-11-26T08:12:24.765Z,2.83
2022-11-26T08:13:24.745Z,2.76
2022-11-26T08:14:24.726Z,2.89
2022-11-26T08:15:24.716Z,2.80
2022-11-26T08:16:26.876Z,2.81
2022-11-26T08:17:24.688Z,2.84
2022-11-26T08:18:24.673Z,2.77
2022-11-26T08:19:24.672Z,2.76
2022-11-26T08:20:28.885Z,2.80
2022-11-26T08:21:24.656Z,2.77
2022-11-26T08:22:24.616Z,2.84
2022-11-26T08:23:24.605Z,2.71
2022-11-26T08:24:24.594Z,2.68
2022-11-26T08:25:24.579Z,2.74
2022-11-26T08:26:32.710Z,2.61
2022-11-26T08:27:25.578Z,2.69
2022-11-26T08:28:24.533Z,2.66
2022-11-26T08:29:24.529Z,2.62
2022-11-26T08:30:24.513Z,2.69
2022-11-26T08:31:24.716Z,2.80
2022-11-26T08:32:24.484Z,2.80
2022-11-26T08:33:24.475Z,2.81
2022-11-26T08:34:24.460Z,2.98
2022-11-26T08:35:38.665Z,2.92
2022-11-26T08:36:25.460Z,2.99
2022-11-26T08:37:24.435Z,3.08
2022-11-26T08:38:24.480Z,3.04
2022-11-26T08:39:24.390Z,3.08
2022-11-26T08:40:24.371Z,2.99
2022-11-26T08:41:24.363Z,3.20
2022-11-26T08:42:24.351Z,2.92
2022-11-26T08:43:39.560Z,3.05
2022-11-26T08:44:25.341Z,3.07
2022-11-26T08:45:24.315Z,3.07
2022-11-26T08:46:24.341Z,3.01
2022-11-26T08:47:24.285Z,3.04
2022-11-26T08:48:27.878Z,2.94
2022-11-26T08:49:25.311Z,3.05
2022-11-26T08:50:24.237Z,3.05
2022-11-26T08:51:24.230Z,2.95
2022-11-26T08:52:24.212Z,3.01
2022-11-26T08:53:24.254Z,2.90
2022-11-26T08:54:24.191Z,3.01
2022-11-26T08:55:27.089Z,3.02
2022-11-26T08:56:24.163Z,2.92
2022-11-26T08:57:24.152Z,3.08
2022-11-26T08:58:24.289Z,3.12
2022-11-26T08:59:24.121Z,3.15
2022-11-26T09:00:24.154Z,3.12
2022-11-26T09:01:24.158Z,3.16
2022-11-26T09:02:24.080Z,3.26
2022-11-26T09:03:24.154Z,3.41
2022-11-26T09:04:24.053Z,3.42
2022-11-26T09:05:24.040Z,3.71
2022-11-26T09:06:24.023Z,3.77
2022-11-26T09:07:24.039Z,3.86
2022-11-26T09:08:24.000Z,3.98
2022-11-26T09:09:24.009Z,3.98
2022-11-26T09:10:24.045Z,3.89
2022-11-26T09:11:23.958Z,3.98
2022-11-26T09:12:23.949Z,4.04
2022-11-26T09:13:23.936Z,4.08
2022-11-26T09:14:23.917Z,4.07
2022-11-26T09:15:23.949Z,4.08
2022-11-26T09:16:24.060Z,4.13
2022-11-26T09:17:23.873Z,4.17
2022-11-26T09:18:23.863Z,4.34
2022-11-26T09:19:23.855Z,4.29
2022-11-26T09:20:23.880Z,4.53
2022-11-26T09:21:23.946Z,4.65
2022-11-26T09:22:23.809Z,4.65
2022-11-26T09:23:23.801Z,4.72
2022-11-26T09:24:23.783Z,4.86
2022-11-26T09:25:23.811Z,5.04
2022-11-26T09:26:23.754Z,5.06
2022-11-26T09:27:23.741Z,5.09
2022-11-26T09:28:23.737Z,5.12
2022-11-26T09:29:23.713Z,5.29
2022-11-26T09:30:23.698Z,5.22
2022-11-26T09:31:23.808Z,5.15
2022-11-26T09:32:27.084Z,5.26
2022-11-26T09:33:24.681Z,5.23
2022-11-26T09:34:23.649Z,5.04
2022-11-26T09:35:23.638Z,5.06
2022-11-26T09:36:23.621Z,4.94
2022-11-26T09:37:23.606Z,4.93
2022-11-26T09:38:23.773Z,4.88
2022-11-26T09:39:23.584Z,4.90
2022-11-26T09:40:23.564Z,4.77
2022-11-26T09:41:23.571Z,4.61
2022-11-26T09:42:23.528Z,4.75
2022-11-26T09:43:23.521Z,4.65
2022-11-26T09:44:23.632Z,4.72
2022-11-26T09:45:23.555Z,4.64
2022-11-26T09:46:23.478Z,4.67
2022-11-26T09:47:23.464Z,4.64
2022-11-26T09:48:23.451Z,4.62
2022-11-26T09:49:23.443Z,4.68
2022-11-26T09:50:23.589Z,4.61
2022-11-26T09:51:23.418Z,4.75
2022-11-26T09:52:23.400Z,4.59
2022-11-26T09:53:23.401Z,4.69
2022-11-26T09:54:23.369Z,4.61
2022-11-26T09:55:23.358Z,4.68
2022-11-26T09:56:23.350Z,4.72
2022-11-26T09:57:23.348Z,4.72
2022-11-26T09:58:26.907Z,4.72
2022-11-26T09:59:23.320Z,4.77
2022-11-26T10:00:23.291Z,4.84
2022-11-26T10:01:23.383Z,4.96
2022-11-26T10:02:23.328Z,5.04
2022-11-26T10:03:23.345Z,4.91
2022-11-26T10:04:23.235Z,5.01
2022-11-26T10:05:23.222Z,5.05
2022-11-26T10:06:23.210Z,5.01
2022-11-26T10:07:23.280Z,5.09
2022-11-26T10:08:23.185Z,5.12
2022-11-26T10:09:23.170Z,5.15
2022-11-26T10:10:23.159Z,5.14
2022-11-26T10:11:23.148Z,5.23
2022-11-26T10:12:25.925Z,5.24
2022-11-26T10:13:23.135Z,5.30
2022-11-26T10:14:23.101Z,5.37
2022-11-26T10:15:23.088Z,5.37
2022-11-26T10:16:23.145Z,5.37
2022-11-26T10:17:23.058Z,5.26
2022-11-26T10:18:23.046Z,5.48
2022-11-26T10:19:23.032Z,5.49
2022-11-26T10:20:23.020Z,5.70
2022-11-26T10:21:37.783Z,5.84
2022-11-26T10:22:24.034Z,6.10
2022-11-26T10:23:22.985Z,6.19
2022-11-26T10:24:22.973Z,6.24
2022-11-26T10:25:22.952Z,6.16
2022-11-26T10:26:22.939Z,6.32
2022-11-26T10:27:22.940Z,6.25
2022-11-26T10:28:23.183Z,6.20
2022-11-26T10:29:23.003Z,6.38
2022-11-26T10:30:22.886Z,6.32
2022-11-26T10:31:22.934Z,6.45
2022-11-26T10:32:22.862Z,6.42
2022-11-26T10:33:22.845Z,6.51
2022-11-26T10:34:22.836Z,6.60
2022-11-26T10:35:22.820Z,6.63
2022-11-26T10:36:22.803Z,6.78
2022-11-26T10:37:22.785Z,6.76
2022-11-26T10:38:22.772Z,6.96
2022-11-26T10:39:22.759Z,6.94
2022-11-26T10:40:22.747Z,6.89
2022-11-26T10:41:22.734Z,6.93
2022-11-26T10:42:22.723Z,7.14
2022-11-26T10:43:22.712Z,7.04
2022-11-26T10:44:22.698Z,7.27
2022-11-26T10:45:22.701Z,7.37
2022-11-26T10:46:22.701Z,7.71
2022-11-26T10:47:22.660Z,7.96
2022-11-26T10:48:22.650Z,8.27
2022-11-26T10:49:22.640Z,8.88
2022-11-26T10:50:46.477Z,9.71
2022-11-26T10:51:26.463Z,10.39
2022-11-26T10:52:22.587Z,10.43
2022-11-26T10:53:22.577Z,10.54
2022-11-26T10:54:22.557Z,10.93
2022-11-26T10:55:22.546Z,11.12
2022-11-26T10:56:22.534Z,11.31
2022-11-26T10:57:22.517Z,11.06
2022-11-26T10:58:22.520Z,10.66
2022-11-26T10:59:22.494Z,10.62
2022-11-26T11:00:22.479Z,10.26
2022-11-26T11:01:22.520Z,9.91
2022-11-26T11:02:22.486Z,9.73
2022-11-26T11:03:38.492Z,9.58
2022-11-26T11:04:23.443Z,9.80
2022-11-26T11:05:22.404Z,9.60
2022-11-26T11:06:22.391Z,9.86
2022-11-26T11:07:22.444Z,10.42
2022-11-26T11:08:22.365Z,11.36
2022-11-26T11:09:22.356Z,12.34
2022-11-26T11:10:22.343Z,13.25
2022-11-26T11:11:22.332Z,13.94
2022-11-26T11:12:22.319Z,14.20
2022-11-26T11:13:22.303Z,14.79
2022-11-26T11:14:22.289Z,15.31
2022-11-26T11:15:22.272Z,15.37
2022-11-26T11:16:22.334Z,15.81
2022-11-26T11:17:22.303Z,15.89
2022-11-26T11:18:22.229Z,15.89
2022-11-26T11:19:22.210Z,16.07
2022-11-26T11:20:22.215Z,16.25
2022-11-26T11:21:22.190Z,16.65
2022-11-26T11:22:22.173Z,17.00
2022-11-26T11:23:34.709Z,17.18
2022-11-26T11:24:23.170Z,17.17
2022-11-26T11:25:22.137Z,16.67
2022-11-26T11:26:22.122Z,16.08
2022-11-26T11:27:22.111Z,15.34
2022-11-26T11:28:22.100Z,14.53
2022-11-26T11:29:22.078Z,13.91
2022-11-26T11:30:22.069Z,13.46
2022-11-26T11:31:22.116Z,12.92
2022-11-26T11:32:22.038Z,12.80
2022-11-26T11:33:22.053Z,12.62
2022-11-26T11:34:22.015Z,12.52
2022-11-26T11:35:22.002Z,12.66
2022-11-26T11:36:21.987Z,13.36
2022-11-26T11:37:21.972Z,14.04
2022-11-26T11:38:21.959Z,15.18
2022-11-26T11:39:21.944Z,15.73
2022-11-26T11:40:21.932Z,16.17
2022-11-26T11:41:21.914Z,16.66
2022-11-26T11:42:21.906Z,17.25
2022-11-26T11:43:21.887Z,17.83
2022-11-26T11:44:21.875Z,18.09
2022-11-26T11:45:21.857Z,18.41
2022-11-26T11:46:21.924Z,18.36
2022-11-26T11:47:21.830Z,18.47
2022-11-26T11:48:21.818Z,18.78
2022-11-26T11:49:21.835Z,18.82
2022-11-26T11:50:21.795Z,18.53
2022-11-26T11:51:21.781Z,18.50
2022-11-26T11:52:21.773Z,18.65
2022-11-26T11:53:21.754Z,18.76
2022-11-26T11:54:21.751Z,18.89
2022-11-26T11:55:21.792Z,19.10
2022-11-26T11:56:21.721Z,18.91
2022-11-26T11:57:21.699Z,19.12
2022-11-26T11:58:21.698Z,18.97
2022-11-26T11:59:21.675Z,19.20
2022-11-26T12:00:21.661Z,19.24
2022-11-26T12:01:21.653Z,19.24
2022-11-26T12:02:21.670Z,19.02
2022-11-26T12:03:21.623Z,19.39
2022-11-26T12:04:21.742Z,19.50
2022-11-26T12:05:22.096Z,19.64
2022-11-26T12:06:21.722Z,19.90
2022-11-26T12:07:21.629Z,19.86
2022-11-26T12:08:21.553Z,19.86
2022-11-26T12:09:21.539Z,19.75
2022-11-26T12:10:21.526Z,19.98
2022-11-26T12:11:21.514Z,20.30
2022-11-26T12:12:21.495Z,20.37
2022-11-26T12:13:21.487Z,20.46
2022-11-26T12:14:21.473Z,20.51
2022-11-26T12:15:21.458Z,20.40
2022-11-26T12:16:21.500Z,20.25
2022-11-26T12:17:21.427Z,20.30
2022-11-26T12:18:21.418Z,20.50
2022-11-26T12:19:21.402Z,20.35
2022-11-26T12:20:21.395Z,20.19
2022-11-26T12:21:21.397Z,20.51
2022-11-26T12:22:21.369Z,20.71
2022-11-26T12:23:24.558Z,20.78
2022-11-26T12:24:21.340Z,20.50
2022-11-26T12:25:21.325Z,20.31
2022-11-26T12:26:21.317Z,20.31
2022-11-26T12:27:21.300Z,20.30
2022-11-26T12:28:21.281Z,20.40
2022-11-26T12:29:21.270Z,20.34
2022-11-26T12:30:21.261Z,20.58
2022-11-26T12:31:21.285Z,19.61
2022-11-26T12:32:21.226Z,19.28
2022-11-26T12:33:21.212Z,19.65
2022-11-26T12:34:21.201Z,19.82
2022-11-26T12:35:21.186Z,20.00
2022-11-26T12:36:21.181Z,20.12
2022-11-26T12:37:21.188Z,20.15
2022-11-26T12:38:21.252Z,19.52
2022-11-26T12:39:21.141Z,19.75
2022-11-26T12:40:21.129Z,19.85
2022-11-26T12:41:21.115Z,19.94
2022-11-26T12:42:21.101Z,19.64
2022-11-26T12:43:21.084Z,19.75
2022-11-26T12:44:21.076Z,19.57
2022-11-26T12:45:21.060Z,19.64
2022-11-26T12:46:21.072Z,19.60
2022-11-26T12:47:21.033Z,19.82
2022-11-26T12:48:21.015Z,20.00
2022-11-26T12:49:21.002Z,20.15
2022-11-26T12:50:20.992Z,20.05
2022-11-26T12:51:20.976Z,19.83
2022-11-26T12:52:20.962Z,19.75
2022-11-26T12:53:20.975Z,19.76
2022-11-26T12:54:20.941Z,19.01
2022-11-26T12:55:20.927Z,18.91
2022-11-26T12:56:20.923Z,19.20
2022-11-26T12:57:20.906Z,19.24
2022-11-26T12:58:20.893Z,19.02
2022-11-26T12:59:20.881Z,18.71
2022-11-26T13:00:25.210Z,19.05
2022-11-26T13:01:20.901Z,18.93
2022-11-26T13:02:20.918Z,18.87
2022-11-26T13:03:20.834Z,19.09
2022-11-26T13:04:37.929Z,19.23
2022-11-26T13:05:21.877Z,19.21
2022-11-26T13:06:20.782Z,19.31
2022-11-26T13:07:20.859Z,19.40
2022-11-26T13:08:20.757Z,19.53
2022-11-26T13:09:20.771Z,19.47
2022-11-26T13:10:20.724Z,19.60
2022-11-26T13:11:20.722Z,19.72
2022-11-26T13:12:20.698Z,19.71
2022-11-26T13:13:20.683Z,19.42